sensor_id;sensor_type;location;lat;lon;timestamp;pressure;altitude;pressure_sealevel;temperature;humidity
29569;BME280;16501;51.462;14.346;2023-04-29T00:00:29;99654.09;;;11.46;100.00
29569;BME280;16501;51.462;14.346;2023-04-29T00:02:55;99635.38;;;11.38;100.00
29569;BME280;16501;51.462;14.346;2023-04-29T00:05:20;99639.22;;;11.40;100.00
29569;BME280;16501;51.462;14.346;2023-04-29T00:07:45;99656.13;;;11.46;100.00
29569;BME280;16501;51.462;14.346;2023-04-29T00:10:10;99662.53;;;11.46;100.00
29569;BME280;16501;51.462;14.346;2023-04-29T00:12:39;99646.44;;;11.47;100.00
29569;BME280;16501;51.462;14.346;2023-04-29T00:15:05;99634.03;;;11.33;100.00
29569;BME280;16501;51.462;14.346;2023-04-29T00:17:31;99644.63;;;11.44;100.00
29569;BME280;16501;51.462;14.346;2023-04-29T00:19:56;99622.75;;;11.27;100.00
29569;BME280;16501;51.462;14.346;2023-04-29T00:22:21;99614.06;;;11.25;100.00
29569;BME280;16501;51.462;14.346;2023-04-29T00:24:47;99623.09;;;11.35;100.00
29569;BME280;16501;51.462;14.346;2023-04-29T00:27:12;99632.84;;;11.40;100.00
29569;BME280;16501;51.462;14.346;2023-04-29T00:29:37;99633.34;;;11.38;100.00
29569;BME280;16501;51.462;14.346;2023-04-29T00:32:03;99616.09;;;11.25;100.00
29569;BME280;16501;51.462;14.346;2023-04-29T00:34:28;99631.94;;;11.28;100.00
29569;BME280;16501;51.462;14.346;2023-04-29T00:36:53;99637.00;;;11.24;100.00
29569;BME280;16501;51.462;14.346;2023-04-29T00:39:19;99621.66;;;11.19;100.00
29569;BME280;16501;51.462;14.346;2023-04-29T00:41:44;99627.47;;;11.16;100.00
29569;BME280;16501;51.462;14.346;2023-04-29T00:44:09;99634.47;;;11.26;100.00
29569;BME280;16501;51.462;14.346;2023-04-29T00:46:35;99613.72;;;11.18;100.00
29569;BME280;16501;51.462;14.346;2023-04-29T00:49:01;99639.81;;;11.24;100.00
29569;BME280;16501;51.462;14.346;2023-04-29T00:51:26;99613.88;;;11.08;100.00
29569;BME280;16501;51.462;14.346;2023-04-29T00:53:52;99623.13;;;11.14;100.00
29569;BME280;16501;51.462;14.346;2023-04-29T00:56:18;99620.13;;;11.18;100.00
29569;BME280;16501;51.462;14.346;2023-04-29T00:58:45;99597.31;;;11.10;100.00
29569;BME280;16501;51.462;14.346;2023-04-29T01:01:18;99613.72;;;11.18;100.00
29569;BME280;16501;51.462;14.346;2023-04-29T01:03:44;99593.81;;;10.95;100.00
29569;BME280;16501;51.462;14.346;2023-04-29T01:06:22;99622.50;;;11.05;100.00
29569;BME280;16501;51.462;14.346;2023-04-29T01:09:16;99607.72;;;11.04;100.00
29569;BME280;16501;51.462;14.346;2023-04-29T01:11:52;99609.53;;;11.07;100.00
29569;BME280;16501;51.462;14.346;2023-04-29T01:14:20;99618.72;;;11.08;100.00
29569;BME280;16501;51.462;14.346;2023-04-29T01:16:53;99597.06;;;10.88;100.00
29569;BME280;16501;51.462;14.346;2023-04-29T01:19:43;99610.38;;;10.93;100.00
29569;BME280;16501;51.462;14.346;2023-04-29T01:22:10;99602.94;;;10.90;100.00
29569;BME280;16501;51.462;14.346;2023-04-29T01:24:36;99600.44;;;10.92;100.00
29569;BME280;16501;51.462;14.346;2023-04-29T01:27:09;99609.63;;;10.92;100.00
29569;BME280;16501;51.462;14.346;2023-04-29T01:29:43;99605.19;;;10.86;100.00
29569;BME280;16501;51.462;14.346;2023-04-29T01:32:14;99612.06;;;10.85;100.00
29569;BME280;16501;51.462;14.346;2023-04-29T01:34:58;99594.03;;;10.71;100.00
29569;BME280;16501;51.462;14.346;2023-04-29T01:37:36;99612.84;;;10.85;100.00
29569;BME280;16501;51.462;14.346;2023-04-29T01:40:08;99611.28;;;10.84;100.00
29569;BME280;16501;51.462;14.346;2023-04-29T01:42:47;99592.28;;;10.73;100.00
29569;BME280;16501;51.462;14.346;2023-04-29T01:45:16;99600.97;;;10.75;100.00
29569;BME280;16501;51.462;14.346;2023-04-29T01:47:44;99609.47;;;10.81;100.00
29569;BME280;16501;51.462;14.346;2023-04-29T01:50:10;99569.66;;;10.56;100.00
29569;BME280;16501;51.462;14.346;2023-04-29T01:52:35;99616.00;;;10.93;100.00
29569;BME280;16501;51.462;14.346;2023-04-29T01:55:01;99591.53;;;10.73;100.00
29569;BME280;16501;51.462;14.346;2023-04-29T01:57:27;99611.50;;;10.81;100.00
29569;BME280;16501;51.462;14.346;2023-04-29T01:59:55;99619.75;;;10.90;100.00
29569;BME280;16501;51.462;14.346;2023-04-29T02:02:21;99608.75;;;10.86;100.00
29569;BME280;16501;51.462;14.346;2023-04-29T02:04:47;99618.72;;;10.87;100.00
29569;BME280;16501;51.462;14.346;2023-04-29T02:07:14;99590.19;;;10.68;100.00
29569;BME280;16501;51.462;14.346;2023-04-29T02:09:40;99598.94;;;10.76;100.00
29569;BME280;16501;51.462;14.346;2023-04-29T02:12:05;99602.06;;;10.78;100.00
29569;BME280;16501;51.462;14.346;2023-04-29T02:14:31;99606.88;;;10.78;100.00
29569;BME280;16501;51.462;14.346;2023-04-29T02:16:58;99605.25;;;10.71;100.00
29569;BME280;16501;51.462;14.346;2023-04-29T02:19:23;99601.69;;;10.70;100.00
29569;BME280;16501;51.462;14.346;2023-04-29T02:21:48;99571.41;;;10.54;100.00
29569;BME280;16501;51.462;14.346;2023-04-29T02:24:14;99599.44;;;10.74;100.00
29569;BME280;16501;51.462;14.346;2023-04-29T02:26:39;99571.47;;;10.60;100.00
29569;BME280;16501;51.462;14.346;2023-04-29T02:29:05;99605.75;;;10.69;100.00
29569;BME280;16501;51.462;14.346;2023-04-29T02:31:30;99619.06;;;10.74;100.00
29569;BME280;16501;51.462;14.346;2023-04-29T02:33:55;99633.88;;;10.75;100.00
29569;BME280;16501;51.462;14.346;2023-04-29T02:36:21;99619.47;;;10.67;100.00
29569;BME280;16501;51.462;14.346;2023-04-29T02:38:46;99628.81;;;10.79;100.00
29569;BME280;16501;51.462;14.346;2023-04-29T02:41:17;99628.13;;;10.84;100.00
29569;BME280;16501;51.462;14.346;2023-04-29T02:43:42;99628.41;;;10.86;100.00
29569;BME280;16501;51.462;14.346;2023-04-29T02:46:08;99629.09;;;10.81;100.00
29569;BME280;16501;51.462;14.346;2023-04-29T02:48:33;99605.63;;;10.79;100.00
29569;BME280;16501;51.462;14.346;2023-04-29T02:50:59;99612.53;;;10.83;100.00
29569;BME280;16501;51.462;14.346;2023-04-29T02:53:24;99626.00;;;10.79;100.00
29569;BME280;16501;51.462;14.346;2023-04-29T02:55:49;99608.56;;;10.69;100.00
29569;BME280;16501;51.462;14.346;2023-04-29T02:58:17;99634.97;;;10.83;100.00
29569;BME280;16501;51.462;14.346;2023-04-29T03:00:42;99636.75;;;10.81;100.00
29569;BME280;16501;51.462;14.346;2023-04-29T03:03:08;99635.97;;;10.80;100.00
29569;BME280;16501;51.462;14.346;2023-04-29T03:05:33;99620.06;;;10.71;100.00
29569;BME280;16501;51.462;14.346;2023-04-29T03:07:59;99620.75;;;10.66;100.00
29569;BME280;16501;51.462;14.346;2023-04-29T03:10:24;99638.69;;;10.74;100.00
29569;BME280;16501;51.462;14.346;2023-04-29T03:12:50;99628.50;;;10.56;100.00
29569;BME280;16501;51.462;14.346;2023-04-29T03:15:15;99621.19;;;10.59;100.00
29569;BME280;16501;51.462;14.346;2023-04-29T03:17:41;99630.69;;;10.67;100.00
29569;BME280;16501;51.462;14.346;2023-04-29T03:20:06;99624.53;;;10.63;100.00
29569;BME280;16501;51.462;14.346;2023-04-29T03:22:32;99614.97;;;10.55;100.00
29569;BME280;16501;51.462;14.346;2023-04-29T03:24:57;99614.00;;;10.58;100.00
29569;BME280;16501;51.462;14.346;2023-04-29T03:27:22;99612.06;;;10.64;100.00
29569;BME280;16501;51.462;14.346;2023-04-29T03:29:47;99619.19;;;10.65;100.00
29569;BME280;16501;51.462;14.346;2023-04-29T03:32:13;99617.94;;;10.66;100.00
29569;BME280;16501;51.462;14.346;2023-04-29T03:34:38;99610.78;;;10.65;100.00
29569;BME280;16501;51.462;14.346;2023-04-29T03:37:03;99601.06;;;10.61;100.00
29569;BME280;16501;51.462;14.346;2023-04-29T03:39:29;99614.72;;;10.73;100.00
29569;BME280;16501;51.462;14.346;2023-04-29T03:41:57;99608.84;;;10.71;100.00
29569;BME280;16501;51.462;14.346;2023-04-29T03:44:22;99604.16;;;10.63;100.00
29569;BME280;16501;51.462;14.346;2023-04-29T03:46:47;99585.78;;;10.62;100.00
29569;BME280;16501;51.462;14.346;2023-04-29T03:49:13;99611.91;;;10.53;100.00
29569;BME280;16501;51.462;14.346;2023-04-29T03:51:38;99601.97;;;10.52;100.00
29569;BME280;16501;51.462;14.346;2023-04-29T03:54:04;99612.56;;;10.63;100.00
29569;BME280;16501;51.462;14.346;2023-04-29T03:56:29;99609.03;;;10.47;100.00
29569;BME280;16501;51.462;14.346;2023-04-29T03:58:54;99607.25;;;10.50;100.00
29569;BME280;16501;51.462;14.346;2023-04-29T04:01:20;99600.13;;;10.49;100.00
29569;BME280;16501;51.462;14.346;2023-04-29T04:03:45;99612.66;;;10.53;100.00
29569;BME280;16501;51.462;14.346;2023-04-29T04:06:11;99611.84;;;10.47;100.00
29569;BME280;16501;51.462;14.346;2023-04-29T04:08:36;99623.53;;;10.46;100.00
29569;BME280;16501;51.462;14.346;2023-04-29T04:11:01;99619.31;;;10.35;100.00
29569;BME280;16501;51.462;14.346;2023-04-29T04:13:28;99624.38;;;10.52;100.00
29569;BME280;16501;51.462;14.346;2023-04-29T04:15:53;99619.28;;;10.50;100.00
29569;BME280;16501;51.462;14.346;2023-04-29T04:18:18;99617.78;;;10.55;100.00
29569;BME280;16501;51.462;14.346;2023-04-29T04:20:43;99614.22;;;10.54;100.00
29569;BME280;16501;51.462;14.346;2023-04-29T04:23:09;99615.56;;;10.59;100.00
29569;BME280;16501;51.462;14.346;2023-04-29T04:25:34;99620.47;;;10.64;100.00
29569;BME280;16501;51.462;14.346;2023-04-29T04:27:59;99619.91;;;10.60;100.00
29569;BME280;16501;51.462;14.346;2023-04-29T04:30:24;99609.78;;;10.48;100.00
29569;BME280;16501;51.462;14.346;2023-04-29T04:32:50;99603.41;;;10.47;100.00
29569;BME280;16501;51.462;14.346;2023-04-29T04:35:15;99620.75;;;10.66;100.00
29569;BME280;16501;51.462;14.346;2023-04-29T04:37:40;99611.97;;;10.59;100.00
29569;BME280;16501;51.462;14.346;2023-04-29T04:40:06;99600.97;;;10.55;100.00
29569;BME280;16501;51.462;14.346;2023-04-29T04:42:31;99617.53;;;10.73;100.00
29569;BME280;16501;51.462;14.346;2023-04-29T04:44:57;99604.91;;;10.63;100.00
29569;BME280;16501;51.462;14.346;2023-04-29T04:47:22;99609.88;;;10.74;100.00
29569;BME280;16501;51.462;14.346;2023-04-29T04:49:47;99611.44;;;10.75;100.00
29569;BME280;16501;51.462;14.346;2023-04-29T04:52:14;99605.25;;;10.71;100.00
29569;BME280;16501;51.462;14.346;2023-04-29T04:54:39;99619.16;;;10.80;100.00
29569;BME280;16501;51.462;14.346;2023-04-29T04:57:04;99628.31;;;10.81;100.00
29569;BME280;16501;51.462;14.346;2023-04-29T04:59:30;99631.91;;;10.81;100.00
29569;BME280;16501;51.462;14.346;2023-04-29T05:01:55;99627.84;;;10.82;100.00
29569;BME280;16501;51.462;14.346;2023-04-29T05:04:21;99633.94;;;10.81;100.00
29569;BME280;16501;51.462;14.346;2023-04-29T05:06:46;99606.47;;;10.64;100.00
29569;BME280;16501;51.462;14.346;2023-04-29T05:09:13;99617.69;;;10.64;100.00
29569;BME280;16501;51.462;14.346;2023-04-29T05:11:38;99627.13;;;10.67;100.00
29569;BME280;16501;51.462;14.346;2023-04-29T05:14:04;99617.25;;;10.71;100.00
29569;BME280;16501;51.462;14.346;2023-04-29T05:16:30;99630.28;;;10.74;100.00
29569;BME280;16501;51.462;14.346;2023-04-29T05:18:55;99628.06;;;10.79;100.00
29569;BME280;16501;51.462;14.346;2023-04-29T05:21:20;99632.91;;;10.78;100.00
29569;BME280;16501;51.462;14.346;2023-04-29T05:23:45;99631.91;;;10.81;100.00
29569;BME280;16501;51.462;14.346;2023-04-29T05:26:11;99633.66;;;10.79;100.00
29569;BME280;16501;51.462;14.346;2023-04-29T05:28:36;99634.78;;;10.87;100.00
29569;BME280;16501;51.462;14.346;2023-04-29T05:31:04;99620.13;;;10.77;100.00
29569;BME280;16501;51.462;14.346;2023-04-29T05:33:30;99615.44;;;10.68;100.00
29569;BME280;16501;51.462;14.346;2023-04-29T05:35:57;99642.91;;;10.85;100.00
29569;BME280;16501;51.462;14.346;2023-04-29T05:38:22;99623.06;;;10.68;100.00
29569;BME280;16501;51.462;14.346;2023-04-29T05:40:53;99629.72;;;10.70;100.00
29569;BME280;16501;51.462;14.346;2023-04-29T05:43:18;99628.19;;;10.69;100.00
29569;BME280;16501;51.462;14.346;2023-04-29T05:45:45;99640.78;;;10.80;100.00
29569;BME280;16501;51.462;14.346;2023-04-29T05:48:11;99640.03;;;10.79;100.00
29569;BME280;16501;51.462;14.346;2023-04-29T05:50:36;99643.31;;;10.78;100.00
29569;BME280;16501;51.462;14.346;2023-04-29T05:53:02;99646.13;;;10.78;100.00
29569;BME280;16501;51.462;14.346;2023-04-29T05:55:27;99643.81;;;10.76;100.00
29569;BME280;16501;51.462;14.346;2023-04-29T05:57:52;99647.97;;;10.81;100.00
29569;BME280;16501;51.462;14.346;2023-04-29T06:00:17;99633.25;;;10.86;100.00
29569;BME280;16501;51.462;14.346;2023-04-29T06:02:43;99638.34;;;10.87;100.00
29569;BME280;16501;51.462;14.346;2023-04-29T06:05:10;99650.28;;;11.03;100.00
29569;BME280;16501;51.462;14.346;2023-04-29T06:07:35;99655.53;;;11.16;100.00
29569;BME280;16501;51.462;14.346;2023-04-29T06:10:01;99643.28;;;11.13;100.00
29569;BME280;16501;51.462;14.346;2023-04-29T06:12:26;99659.19;;;11.22;100.00
29569;BME280;16501;51.462;14.346;2023-04-29T06:14:51;99628.59;;;11.03;100.00
29569;BME280;16501;51.462;14.346;2023-04-29T06:17:16;99636.31;;;11.08;100.00
29569;BME280;16501;51.462;14.346;2023-04-29T06:19:42;99659.75;;;11.26;100.00
29569;BME280;16501;51.462;14.346;2023-04-29T06:22:07;99661.34;;;11.32;100.00
29569;BME280;16501;51.462;14.346;2023-04-29T06:24:32;99671.50;;;11.30;100.00
29569;BME280;16501;51.462;14.346;2023-04-29T06:26:58;99668.50;;;11.33;100.00
29569;BME280;16501;51.462;14.346;2023-04-29T06:29:23;99675.38;;;11.32;100.00
29569;BME280;16501;51.462;14.346;2023-04-29T06:31:48;99659.75;;;11.26;100.00
29569;BME280;16501;51.462;14.346;2023-04-29T06:34:13;99687.38;;;11.33;100.00
29569;BME280;16501;51.462;14.346;2023-04-29T06:36:38;99670.19;;;11.25;100.00
29569;BME280;16501;51.462;14.346;2023-04-29T06:39:05;99656.94;;;11.26;100.00
29569;BME280;16501;51.462;14.346;2023-04-29T06:41:30;99662.81;;;11.28;100.00
29569;BME280;16501;51.462;14.346;2023-04-29T06:43:56;99681.53;;;11.37;100.00
29569;BME280;16501;51.462;14.346;2023-04-29T06:46:21;99662.81;;;11.28;100.00
29569;BME280;16501;51.462;14.346;2023-04-29T06:48:46;99676.91;;;11.33;100.00
29569;BME280;16501;51.462;14.346;2023-04-29T06:51:12;99668.28;;;11.37;100.00
29569;BME280;16501;51.462;14.346;2023-04-29T06:53:37;99672.63;;;11.38;100.00
29569;BME280;16501;51.462;14.346;2023-04-29T06:56:02;99670.03;;;11.35;100.00
29569;BME280;16501;51.462;14.346;2023-04-29T06:58:28;99675.16;;;11.36;100.00
29569;BME280;16501;51.462;14.346;2023-04-29T07:00:53;99681.19;;;11.49;100.00
29569;BME280;16501;51.462;14.346;2023-04-29T07:03:18;99660.16;;;11.39;100.00
29569;BME280;16501;51.462;14.346;2023-04-29T07:05:44;99687.34;;;11.54;100.00
29569;BME280;16501;51.462;14.346;2023-04-29T07:08:10;99685.09;;;11.58;100.00
29569;BME280;16501;51.462;14.346;2023-04-29T07:10:36;99668.84;;;11.41;100.00
29569;BME280;16501;51.462;14.346;2023-04-29T07:13:02;99686.66;;;11.59;100.00
29569;BME280;16501;51.462;14.346;2023-04-29T07:15:28;99700.75;;;11.64;100.00
29569;BME280;16501;51.462;14.346;2023-04-29T07:17:54;99695.88;;;11.65;100.00
29569;BME280;16501;51.462;14.346;2023-04-29T07:20:20;99693.91;;;11.71;100.00
29569;BME280;16501;51.462;14.346;2023-04-29T07:22:45;99678.31;;;11.70;100.00
29569;BME280;16501;51.462;14.346;2023-04-29T07:25:10;99693.25;;;11.82;100.00
29569;BME280;16501;51.462;14.346;2023-04-29T07:27:36;99681.13;;;11.70;100.00
29569;BME280;16501;51.462;14.346;2023-04-29T07:30:02;99694.03;;;11.82;100.00
29569;BME280;16501;51.462;14.346;2023-04-29T07:32:28;99678.94;;;11.80;100.00
29569;BME280;16501;51.462;14.346;2023-04-29T07:34:55;99695.53;;;12.04;100.00
29569;BME280;16501;51.462;14.346;2023-04-29T07:37:21;99697.38;;;12.07;100.00
29569;BME280;16501;51.462;14.346;2023-04-29T07:39:46;99701.97;;;12.10;100.00
29569;BME280;16501;51.462;14.346;2023-04-29T07:42:11;99695.31;;;12.07;100.00
29569;BME280;16501;51.462;14.346;2023-04-29T07:44:37;99700.72;;;12.11;100.00
29569;BME280;16501;51.462;14.346;2023-04-29T07:47:02;99710.78;;;12.23;100.00
29569;BME280;16501;51.462;14.346;2023-04-29T07:49:27;99719.53;;;12.31;100.00
29569;BME280;16501;51.462;14.346;2023-04-29T07:51:53;99701.63;;;12.29;100.00
29569;BME280;16501;51.462;14.346;2023-04-29T07:54:18;99711.63;;;12.30;100.00
29569;BME280;16501;51.462;14.346;2023-04-29T07:56:44;99721.13;;;12.38;100.00
29569;BME280;16501;51.462;14.346;2023-04-29T07:59:10;99701.63;;;12.29;100.00
29569;BME280;16501;51.462;14.346;2023-04-29T08:01:35;99703.69;;;12.28;100.00
29569;BME280;16501;51.462;14.346;2023-04-29T08:04:00;99707.47;;;12.25;100.00
29569;BME280;16501;51.462;14.346;2023-04-29T08:06:25;99712.59;;;12.26;100.00
29569;BME280;16501;51.462;14.346;2023-04-29T08:08:51;99702.44;;;12.35;100.00
29569;BME280;16501;51.462;14.346;2023-04-29T08:11:19;99719.38;;;12.40;100.00
29569;BME280;16501;51.462;14.346;2023-04-29T08:13:46;99727.59;;;12.50;100.00
29569;BME280;16501;51.462;14.346;2023-04-29T08:16:11;99731.47;;;12.52;100.00
29569;BME280;16501;51.462;14.346;2023-04-29T08:18:37;99704.81;;;12.42;100.00
29569;BME280;16501;51.462;14.346;2023-04-29T08:21:02;99714.72;;;12.37;100.00
29569;BME280;16501;51.462;14.346;2023-04-29T08:23:28;99722.09;;;12.35;100.00
29569;BME280;16501;51.462;14.346;2023-04-29T08:25:53;99712.84;;;12.23;100.00
29569;BME280;16501;51.462;14.346;2023-04-29T08:28:23;99733.66;;;12.37;100.00
29569;BME280;16501;51.462;14.346;2023-04-29T08:30:48;99740.72;;;12.26;100.00
29569;BME280;16501;51.462;14.346;2023-04-29T08:33:14;99739.44;;;12.27;100.00
29569;BME280;16501;51.462;14.346;2023-04-29T08:35:40;99743.53;;;12.26;100.00
29569;BME280;16501;51.462;14.346;2023-04-29T08:38:07;99741.22;;;12.25;100.00
29569;BME280;16501;51.462;14.346;2023-04-29T08:40:41;99749.69;;;12.31;100.00
29569;BME280;16501;51.462;14.346;2023-04-29T08:43:08;99744.31;;;12.33;100.00
29569;BME280;16501;51.462;14.346;2023-04-29T08:45:34;99747.13;;;12.33;100.00
29569;BME280;16501;51.462;14.346;2023-04-29T08:48:02;99755.84;;;12.35;100.00
29569;BME280;16501;51.462;14.346;2023-04-29T08:50:29;99731.44;;;12.20;100.00
29569;BME280;16501;51.462;14.346;2023-04-29T08:52:55;99749.41;;;12.29;100.00
29569;BME280;16501;51.462;14.346;2023-04-29T08:55:20;99748.47;;;12.37;100.00
29569;BME280;16501;51.462;14.346;2023-04-29T08:57:48;99754.84;;;12.38;100.00
29569;BME280;16501;51.462;14.346;2023-04-29T09:00:14;99767.72;;;12.50;100.00
29569;BME280;16501;51.462;14.346;2023-04-29T09:02:43;99751.66;;;12.51;100.00
29569;BME280;16501;51.462;14.346;2023-04-29T09:05:09;99775.59;;;12.72;100.00
29569;BME280;16501;51.462;14.346;2023-04-29T09:07:38;99776.13;;;12.76;100.00
29569;BME280;16501;51.462;14.346;2023-04-29T09:10:05;99748.41;;;12.63;100.00
29569;BME280;16501;51.462;14.346;2023-04-29T09:12:30;99784.38;;;12.86;100.00
29569;BME280;16501;51.462;14.346;2023-04-29T09:14:56;99769.72;;;12.76;100.00
29569;BME280;16501;51.462;14.346;2023-04-29T09:20:25;99782.16;;;12.63;100.00
29569;BME280;16501;51.462;14.346;2023-04-29T09:22:53;99758.75;;;12.46;100.00
29569;BME280;16501;51.462;14.346;2023-04-29T09:25:19;99772.91;;;12.57;100.00
29569;BME280;16501;51.462;14.346;2023-04-29T09:27:45;99782.84;;;12.53;100.00
29569;BME280;16501;51.462;14.346;2023-04-29T09:30:10;99769.28;;;12.51;100.00
29569;BME280;16501;51.462;14.346;2023-04-29T09:32:37;99766.97;;;12.50;100.00
29569;BME280;16501;51.462;14.346;2023-04-29T09:35:23;99763.41;;;12.49;100.00
29569;BME280;16501;51.462;14.346;2023-04-29T09:37:49;99777.22;;;12.53;100.00
29569;BME280;16501;51.462;14.346;2023-04-29T09:40:31;99802.09;;;12.60;100.00
29569;BME280;16501;51.462;14.346;2023-04-29T09:42:57;99784.38;;;12.54;100.00
29569;BME280;16501;51.462;14.346;2023-04-29T09:45:36;99784.06;;;12.46;100.00
29569;BME280;16501;51.462;14.346;2023-04-29T09:48:05;99800.81;;;12.61;100.00
29569;BME280;16501;51.462;14.346;2023-04-29T09:50:31;99798.22;;;12.57;100.00
29569;BME280;16501;51.462;14.346;2023-04-29T09:52:58;99806.94;;;12.59;100.00
29569;BME280;16501;51.462;14.346;2023-04-29T09:55:23;99803.31;;;12.53;100.00
29569;BME280;16501;51.462;14.346;2023-04-29T09:57:48;99802.03;;;12.54;100.00
29569;BME280;16501;51.462;14.346;2023-04-29T10:00:14;99810.78;;;12.62;100.00
29569;BME280;16501;51.462;14.346;2023-04-29T10:02:45;99816.44;;;12.68;100.00
29569;BME280;16501;51.462;14.346;2023-04-29T10:05:13;99818.78;;;12.69;100.00
29569;BME280;16501;51.462;14.346;2023-04-29T10:07:38;99807.63;;;12.80;100.00
29569;BME280;16501;51.462;14.346;2023-04-29T10:10:05;99801.44;;;12.76;100.00
29569;BME280;16501;51.462;14.346;2023-04-29T10:12:34;99818.97;;;12.97;100.00
29569;BME280;16501;51.462;14.346;2023-04-29T10:15:10;99816.69;;;12.96;100.00
29569;BME280;16501;51.462;14.346;2023-04-29T10:17:45;99810.22;;;12.84;100.00
29569;BME280;16501;51.462;14.346;2023-04-29T10:20:13;99817.88;;;12.83;100.00
29569;BME280;16501;51.462;14.346;2023-04-29T10:22:45;99825.28;;;12.81;100.00
29569;BME280;16501;51.462;14.346;2023-04-29T10:25:25;99829.25;;;12.69;100.00
29569;BME280;16501;51.462;14.346;2023-04-29T10:27:54;99833.81;;;12.66;100.00
29569;BME280;16501;51.462;14.346;2023-04-29T10:30:20;99826.78;;;12.50;100.00
29569;BME280;16501;51.462;14.346;2023-04-29T10:32:48;99836.25;;;12.47;100.00
29569;BME280;16501;51.462;14.346;2023-04-29T10:35:15;99822.09;;;12.41;100.00
29569;BME280;16501;51.462;14.346;2023-04-29T10:37:44;99826.88;;;12.30;100.00
29569;BME280;16501;51.462;14.346;2023-04-29T10:40:15;99831.03;;;12.40;100.00
29569;BME280;16501;51.462;14.346;2023-04-29T10:42:44;99843.84;;;12.41;100.00
29569;BME280;16501;51.462;14.346;2023-04-29T10:45:31;99847.97;;;12.45;100.00
29569;BME280;16501;51.462;14.346;2023-04-29T10:50:31;99834.78;;;12.57;100.00
29569;BME280;16501;51.462;14.346;2023-04-29T10:52:57;99843.69;;;12.82;100.00
29569;BME280;16501;51.462;14.346;2023-04-29T10:55:23;99831.13;;;12.77;100.00
29569;BME280;16501;51.462;14.346;2023-04-29T10:57:51;99853.50;;;12.92;100.00
29569;BME280;16501;51.462;14.346;2023-04-29T11:00:31;99861.41;;;12.94;100.00
29569;BME280;16501;51.462;14.346;2023-04-29T11:02:58;99858.84;;;12.90;100.00
29569;BME280;16501;51.462;14.346;2023-04-29T11:05:36;99843.28;;;12.63;100.00
29569;BME280;16501;51.462;14.346;2023-04-29T11:08:11;99880.34;;;12.61;100.00
29569;BME280;16501;51.462;14.346;2023-04-29T11:10:41;99861.97;;;12.40;100.00
29569;BME280;16501;51.462;14.346;2023-04-29T11:13:23;99882.78;;;12.27;100.00
29569;BME280;16501;51.462;14.346;2023-04-29T11:15:50;99872.81;;;12.26;100.00
29569;BME280;16501;51.462;14.346;2023-04-29T11:18:15;99867.41;;;12.23;100.00
29569;BME280;16501;51.462;14.346;2023-04-29T11:23:38;99882.69;;;12.42;100.00
29569;BME280;16501;51.462;14.346;2023-04-29T11:26:05;99872.94;;;12.38;100.00
29569;BME280;16501;51.462;14.346;2023-04-29T11:28:31;99894.72;;;12.43;100.00
29569;BME280;16501;51.462;14.346;2023-04-29T11:30:58;99875.69;;;12.32;100.00
29569;BME280;16501;51.462;14.346;2023-04-29T11:33:24;99892.78;;;12.29;100.00
29569;BME280;16501;51.462;14.346;2023-04-29T11:35:51;99893.00;;;12.25;100.00
29569;BME280;16501;51.462;14.346;2023-04-29T11:38:28;99900.78;;;12.15;100.00
29569;BME280;16501;51.462;14.346;2023-04-29T11:40:55;99906.63;;;12.12;100.00
29569;BME280;16501;51.462;14.346;2023-04-29T11:43:22;99906.78;;;12.02;100.00
29569;BME280;16501;51.462;14.346;2023-04-29T11:45:48;99906.25;;;11.83;100.00
29569;BME280;16501;51.462;14.346;2023-04-29T11:48:24;99905.91;;;11.76;100.00
29569;BME280;16501;51.462;14.346;2023-04-29T11:50:55;99923.31;;;11.80;100.00
29569;BME280;16501;51.462;14.346;2023-04-29T11:53:23;99908.78;;;11.81;100.00
29569;BME280;16501;51.462;14.346;2023-04-29T11:55:51;99900.50;;;11.72;100.00
29569;BME280;16501;51.462;14.346;2023-04-29T11:58:19;99899.59;;;11.81;100.00
29569;BME280;16501;51.462;14.346;2023-04-29T12:00:46;99917.00;;;11.85;100.00
29569;BME280;16501;51.462;14.346;2023-04-29T12:03:16;99937.91;;;11.84;100.00
29569;BME280;16501;51.462;14.346;2023-04-29T12:08:25;99926.16;;;11.65;100.00
29569;BME280;16501;51.462;14.346;2023-04-29T12:10:53;99941.75;;;11.66;100.00
29569;BME280;16501;51.462;14.346;2023-04-29T12:13:19;99946.41;;;11.69;100.00
29569;BME280;16501;51.462;14.346;2023-04-29T12:15:47;99946.97;;;11.73;100.00
29569;BME280;16501;51.462;14.346;2023-04-29T12:18:14;99932.25;;;11.63;100.00
29569;BME280;16501;51.462;14.346;2023-04-29T12:20:40;99946.13;;;11.67;100.00
29569;BME280;16501;51.462;14.346;2023-04-29T12:23:12;99931.81;;;11.50;100.00
29569;BME280;16501;51.462;14.346;2023-04-29T12:25:38;99952.91;;;11.60;100.00
29569;BME280;16501;51.462;14.346;2023-04-29T12:28:05;99952.72;;;11.64;100.00
29569;BME280;16501;51.462;14.346;2023-04-29T12:30:33;99958.88;;;11.68;100.00
29569;BME280;16501;51.462;14.346;2023-04-29T12:32:58;99953.28;;;11.68;100.00
29569;BME280;16501;51.462;14.346;2023-04-29T12:35:24;99921.53;;;11.62;100.00
29569;BME280;16501;51.462;14.346;2023-04-29T12:37:49;99953.63;;;11.91;100.00
29569;BME280;16501;51.462;14.346;2023-04-29T12:40:15;99968.88;;;12.04;100.00
29569;BME280;16501;51.462;14.346;2023-04-29T12:42:41;99967.84;;;12.02;100.00
29569;BME280;16501;51.462;14.346;2023-04-29T12:45:06;99952.38;;;11.92;100.00
29569;BME280;16501;51.462;14.346;2023-04-29T12:47:32;99958.75;;;11.92;100.00
29569;BME280;16501;51.462;14.346;2023-04-29T12:50:01;99965.94;;;11.78;100.00